Time;durP1;ratioP1;P1;durP2;ratioP2;P2;SDS_P1;SDS_P2;PMS_P1;PMS_P2;Temp;Humidity;BMP_temperature;BMP_pressure;BME280_temperature;BME280_humidity;BME280_pressure;Samples;Min_cycle;Max_cycle;Signal;HPM_P1;HPM_P2
2021/05/09 00:02:41;;;;;;;8.87;3.47;;;;;;;;;;4888700;29;20198;-91
2021/05/09 00:05:46;;;;;;;8.27;3.37;;;;;;;;;;4881456;29;20201;-88
2021/05/09 00:08:51;;;;;;;6.40;3.20;;;;;;;;;;4881963;29;20729;-91
2021/05/09 00:11:56;;;;;;;7.30;3.97;;;;;;;;;;4880899;29;20697;-91
2021/05/09 00:15:01;;;;;;;5.93;3.53;;;;;;;;;;4899271;29;20204;-88
2021/05/09 00:18:06;;;;;;;8.47;3.63;;;;;;;;;;4895324;29;20219;-89
2021/05/09 00:21:10;;;;;;;9.30;3.90;;;;;;;;;;4888408;29;20234;-89
2021/05/09 00:24:14;;;;;;;7.33;3.30;;;;;;;;;;4891641;29;20274;-92
2021/05/09 00:27:20;;;;;;;6.87;3.20;;;;;;;;;;4890702;29;20216;-89
2021/05/09 00:30:25;;;;;;;8.20;3.37;;;;;;;;;;4889192;29;20289;-91
2021/05/09 00:33:29;;;;;;;5.63;3.10;;;;;;;;;;4891635;29;20224;-90
2021/05/09 00:36:34;;;;;;;6.87;3.20;;;;;;;;;;4890056;29;20197;-89
2021/05/09 00:39:38;;;;;;;6.77;3.13;;;;;;;;;;4890762;29;20228;-90
2021/05/09 00:42:44;;;;;;;9.43;4.20;;;;;;;;;;4878577;29;20240;-90
2021/05/09 00:45:48;;;;;;;9.90;3.57;;;;;;;;;;4883118;29;20257;-90
2021/05/09 00:48:54;;;;;;;9.97;3.73;;;;;;;;;;4891511;29;20262;-90
2021/05/09 00:52:00;;;;;;;7.97;3.53;;;;;;;;;;4891893;29;20210;-89
2021/05/09 00:55:05;;;;;;;7.97;3.80;;;;;;;;;;4891622;29;20228;-91
2021/05/09 00:58:12;;;;;;;9.37;3.70;;;;;;;;;;4891606;29;20544;-90
2021/05/09 01:01:18;;;;;;;6.90;3.47;;;;;;;;;;4890351;29;20229;-89
2021/05/09 01:04:24;;;;;;;7.07;3.37;;;;;;;;;;4879656;29;20184;-90
2021/05/09 01:07:29;;;;;;;6.30;3.10;;;;;;;;;;4890994;29;20217;-91
2021/05/09 01:10:34;;;;;;;9.10;3.83;;;;;;;;;;4890971;29;20232;-91
2021/05/09 01:13:39;;;;;;;9.40;3.80;;;;;;;;;;4890664;29;20260;-90
2021/05/09 01:16:45;;;;;;;12.77;4.40;;;;;;;;;;4860091;29;20217;-91
2021/05/09 01:19:50;;;;;;;6.73;3.93;;;;;;;;;;4860571;29;20194;-91
2021/05/09 01:22:56;;;;;;;8.57;3.83;;;;;;;;;;4868750;29;20289;-90
2021/05/09 01:26:01;;;;;;;7.10;3.80;;;;;;;;;;4886840;29;20212;-90
2021/05/09 01:29:06;;;;;;;9.20;3.60;;;;;;;;;;4891046;29;20228;-90
2021/05/09 01:32:12;;;;;;;10.00;3.97;;;;;;;;;;4891200;29;20224;-91
2021/05/09 01:35:17;;;;;;;8.33;3.67;;;;;;;;;;4880744;29;20596;-91
2021/05/09 01:38:22;;;;;;;6.57;3.70;;;;;;;;;;4890365;29;20254;-91
2021/05/09 01:41:27;;;;;;;7.43;3.50;;;;;;;;;;4889904;29;20213;-90
2021/05/09 01:44:32;;;;;;;8.57;3.53;;;;;;;;;;4883750;29;20213;-91
2021/05/09 01:47:37;;;;;;;9.37;3.60;;;;;;;;;;4879491;29;20242;-89
2021/05/09 01:50:42;;;;;;;9.43;3.93;;;;;;;;;;4879338;29;20237;-91
2021/05/09 01:53:48;;;;;;;6.77;3.33;;;;;;;;;;4882556;29;20735;-91
2021/05/09 01:56:53;;;;;;;8.90;3.87;;;;;;;;;;4889717;29;20212;-90
2021/05/09 01:59:59;;;;;;;5.97;3.53;;;;;;;;;;4889613;29;20357;-90
2021/05/09 02:03:12;;;;;;;9.73;3.80;;;;;;;;;;4891127;29;20446;-90
2021/05/09 02:06:16;;;;;;;6.03;3.33;;;;;;;;;;4886407;29;20681;-91
2021/05/09 02:09:22;;;;;;;7.93;3.30;;;;;;;;;;4860709;29;20215;-90
2021/05/09 02:12:28;;;;;;;8.37;3.57;;;;;;;;;;4879261;29;20229;-90
2021/05/09 02:15:52;;;;;;;7.97;3.87;;;;;;;;;;4889625;29;20258;-91
2021/05/09 02:18:57;;;;;;;7.47;3.90;;;;;;;;;;4878906;29;20656;-91
2021/05/09 02:22:11;;;;;;;8.10;3.73;;;;;;;;;;4889380;29;20226;-91
2021/05/09 02:25:16;;;;;;;6.00;3.27;;;;;;;;;;4876648;29;20245;-90
2021/05/09 02:28:22;;;;;;;7.60;4.17;;;;;;;;;;4877597;29;20221;-91
2021/05/09 02:31:28;;;;;;;6.27;3.60;;;;;;;;;;4877128;29;20196;-90
2021/05/09 02:34:33;;;;;;;6.43;3.40;;;;;;;;;;4878291;29;20214;-90
2021/05/09 02:37:39;;;;;;;8.50;3.37;;;;;;;;;;4883653;29;20209;-90
2021/05/09 02:40:44;;;;;;;6.90;3.70;;;;;;;;;;4862151;29;20229;-90
2021/05/09 02:43:51;;;;;;;10.67;4.40;;;;;;;;;;4884702;29;20192;-90
2021/05/09 02:46:55;;;;;;;7.27;3.80;;;;;;;;;;4859056;29;20217;-90
2021/05/09 02:50:01;;;;;;;8.17;4.00;;;;;;;;;;4871505;29;20669;-91
2021/05/09 02:53:07;;;;;;;8.57;3.70;;;;;;;;;;4876518;29;20419;-91
2021/05/09 02:56:13;;;;;;;9.70;3.80;;;;;;;;;;4884763;29;20237;-89
2021/05/09 02:59:18;;;;;;;7.40;3.93;;;;;;;;;;4877619;29;20234;-89
2021/05/09 03:02:22;;;;;;;5.90;3.70;;;;;;;;;;4888075;29;20225;-91
2021/05/09 03:05:28;;;;;;;7.30;3.73;;;;;;;;;;4884187;29;20201;-90
2021/05/09 03:08:34;;;;;;;9.77;3.73;;;;;;;;;;4887774;29;20185;-91
2021/05/09 03:11:40;;;;;;;9.60;4.03;;;;;;;;;;4887637;29;20208;-91
2021/05/09 03:14:44;;;;;;;9.90;3.57;;;;;;;;;;4887456;29;20694;-91
2021/05/09 03:17:48;;;;;;;6.63;3.13;;;;;;;;;;4881719;29;20247;-91
2021/05/09 03:20:53;;;;;;;6.90;3.40;;;;;;;;;;4869677;29;20221;-90
2021/05/09 03:23:57;;;;;;;6.40;3.47;;;;;;;;;;4868313;29;20237;-90
2021/05/09 03:27:03;;;;;;;6.60;3.87;;;;;;;;;;4866637;29;20278;-90
2021/05/09 03:30:08;;;;;;;8.60;4.30;;;;;;;;;;4871608;29;20249;-91
2021/05/09 03:33:12;;;;;;;8.80;3.80;;;;;;;;;;4886142;29;20635;-89
2021/05/09 03:36:17;;;;;;;6.40;3.47;;;;;;;;;;4875851;29;20246;-90
2021/05/09 03:39:21;;;;;;;6.40;3.47;;;;;;;;;;4883999;29;20262;-91
2021/05/09 03:42:27;;;;;;;7.13;3.80;;;;;;;;;;4856538;29;20233;-91
2021/05/09 03:45:31;;;;;;;7.00;3.47;;;;;;;;;;4867982;29;20213;-90
2021/05/09 03:48:36;;;;;;;5.90;3.60;;;;;;;;;;4874564;29;20250;-89
2021/05/09 03:51:41;;;;;;;8.00;3.50;;;;;;;;;;4885954;29;20209;-89
2021/05/09 03:54:46;;;;;;;6.53;3.47;;;;;;;;;;4875116;29;20668;-90
2021/05/09 03:57:51;;;;;;;9.97;4.20;;;;;;;;;;4880394;29;20217;-90
2021/05/09 04:01:29;;;;;;;8.20;3.90;;;;;;;;;;4875433;29;20209;-89
2021/05/09 04:04:34;;;;;;;5.77;3.47;;;;;;;;;;4874737;29;20222;-90
2021/05/09 04:07:38;;;;;;;6.73;3.80;;;;;;;;;;4855972;29;20201;-91
2021/05/09 04:10:42;;;;;;;5.73;3.37;;;;;;;;;;4855042;29;20673;-89
2021/05/09 04:13:48;;;;;;;6.53;3.57;;;;;;;;;;4865339;29;20221;-90
2021/05/09 04:16:53;;;;;;;7.10;3.40;;;;;;;;;;4866999;29;20214;-89
2021/05/09 04:19:58;;;;;;;12.57;3.83;;;;;;;;;;4879040;29;20213;-89
2021/05/09 04:23:09;;;;;;;9.70;4.30;;;;;;;;;;4874871;29;20234;-90
2021/05/09 04:26:14;;;;;;;9.63;4.07;;;;;;;;;;4886481;29;20202;-90
2021/05/09 04:29:20;;;;;;;8.80;3.80;;;;;;;;;;4885174;29;20273;-90
2021/05/09 04:32:25;;;;;;;8.77;3.90;;;;;;;;;;4885110;29;20202;-89
2021/05/09 04:35:29;;;;;;;6.37;3.30;;;;;;;;;;4885383;29;20205;-90
2021/05/09 04:38:33;;;;;;;8.93;3.97;;;;;;;;;;4881280;29;20205;-88
2021/05/09 04:41:38;;;;;;;9.00;4.30;;;;;;;;;;4874982;29;20246;-90
2021/05/09 04:44:44;;;;;;;5.80;3.53;;;;;;;;;;4874583;29;20258;-89
2021/05/09 04:47:48;;;;;;;8.77;3.40;;;;;;;;;;4874721;29;20201;-90
2021/05/09 04:50:53;;;;;;;7.10;3.90;;;;;;;;;;4889624;29;20200;-88
2021/05/09 04:53:58;;;;;;;5.70;3.60;;;;;;;;;;4889232;29;20213;-89
2021/05/09 04:57:02;;;;;;;8.17;3.83;;;;;;;;;;4885447;29;20274;-90
2021/05/09 05:00:08;;;;;;;8.90;3.77;;;;;;;;;;4877736;29;20213;-89
2021/05/09 05:03:14;;;;;;;7.73;3.43;;;;;;;;;;4889761;29;20276;-90
2021/05/09 05:06:19;;;;;;;7.23;3.30;;;;;;;;;;4879928;29;20226;-90
2021/05/09 05:09:23;;;;;;;6.30;3.73;;;;;;;;;;4889853;29;20345;-90
2021/05/09 05:12:28;;;;;;;7.70;3.60;;;;;;;;;;4889412;29;20232;-91
2021/05/09 05:15:33;;;;;;;6.80;3.70;;;;;;;;;;4878085;29;20526;-89
2021/05/09 05:18:38;;;;;;;6.93;3.43;;;;;;;;;;4858509;29;20234;-89
2021/05/09 05:21:43;;;;;;;6.67;3.53;;;;;;;;;;4878428;29;20205;-89
2021/05/09 05:24:47;;;;;;;10.57;3.80;;;;;;;;;;4888262;29;20217;-91
2021/05/09 05:27:51;;;;;;;4.50;3.20;;;;;;;;;;4890002;29;20201;-91
2021/05/09 05:30:56;;;;;;;7.27;4.13;;;;;;;;;;4876214;29;20205;-91
2021/05/09 05:34:02;;;;;;;7.93;3.67;;;;;;;;;;4889045;29;20225;-91
2021/05/09 05:37:06;;;;;;;7.27;4.03;;;;;;;;;;4882696;29;20201;-91
2021/05/09 05:40:11;;;;;;;7.27;3.43;;;;;;;;;;4878689;29;20205;-89
2021/05/09 05:43:17;;;;;;;6.73;3.87;;;;;;;;;;4877483;29;20266;-91
2021/05/09 05:46:22;;;;;;;10.97;3.60;;;;;;;;;;4888729;29;20201;-88
2021/05/09 05:49:26;;;;;;;7.07;3.57;;;;;;;;;;4878298;29;20685;-90
2021/05/09 05:52:31;;;;;;;6.53;3.67;;;;;;;;;;4877148;29;20193;-90
2021/05/09 05:55:36;;;;;;;7.47;3.53;;;;;;;;;;4878745;29;20197;-91
2021/05/09 05:58:40;;;;;;;8.73;3.67;;;;;;;;;;4877570;29;20649;-90
2021/05/09 06:01:46;;;;;;;5.20;2.70;;;;;;;;;;4882256;29;20197;-89
2021/05/09 06:04:50;;;;;;;9.33;3.47;;;;;;;;;;4878761;29;20209;-90
2021/05/09 06:07:55;;;;;;;5.80;3.30;;;;;;;;;;4881365;29;20214;-90
2021/05/09 06:10:59;;;;;;;4.37;3.00;;;;;;;;;;4889670;29;20206;-89
2021/05/09 06:14:04;;;;;;;5.13;2.95;;;;;;;;;;4892763;29;20197;-89
2021/05/09 06:17:10;;;;;;;6.65;3.03;;;;;;;;;;4890266;29;20277;-92
2021/05/09 06:20:16;;;;;;;5.70;3.30;;;;;;;;;;4894221;29;20213;-90
2021/05/09 06:23:22;;;;;;;5.70;2.97;;;;;;;;;;4881822;29;20652;-91
2021/05/09 06:26:26;;;;;;;5.47;2.70;;;;;;;;;;4880383;29;20247;-90
2021/05/09 06:29:31;;;;;;;4.25;2.80;;;;;;;;;;4880013;29;20201;-90
2021/05/09 06:32:37;;;;;;;4.57;2.80;;;;;;;;;;4880268;29;20303;-92
2021/05/09 06:35:42;;;;;;;5.32;2.95;;;;;;;;;;4879352;29;20685;-92
2021/05/09 06:38:48;;;;;;;6.30;2.92;;;;;;;;;;4882424;29;20687;-91
2021/05/09 06:41:55;;;;;;;4.57;2.70;;;;;;;;;;4879307;29;20265;-92
2021/05/09 06:45:05;;;;;;;7.45;2.53;;;;;;;;;;4889266;29;20592;-92
2021/05/09 06:48:11;;;;;;;8.43;2.80;;;;;;;;;;4888107;29;20221;-91
2021/05/09 06:51:16;;;;;;;3.33;1.98;;;;;;;;;;4889009;29;20215;-91
2021/05/09 06:54:21;;;;;;;5.53;2.00;;;;;;;;;;4884180;29;20290;-92
2021/05/09 06:57:25;;;;;;;3.88;2.30;;;;;;;;;;4887722;29;20196;-91
2021/05/09 07:00:30;;;;;;;7.63;2.47;;;;;;;;;;4879273;29;20185;-92
2021/05/09 07:03:35;;;;;;;5.18;2.17;;;;;;;;;;4888991;29;20218;-91
2021/05/09 07:06:40;;;;;;;4.25;2.15;;;;;;;;;;4879485;29;20221;-90
2021/05/09 07:09:45;;;;;;;4.10;1.83;;;;;;;;;;4880661;29;20223;-91
2021/05/09 07:12:50;;;;;;;5.50;1.83;;;;;;;;;;4879114;29;20317;-90
2021/05/09 07:15:56;;;;;;;5.93;2.10;;;;;;;;;;4879959;29;20230;-90
2021/05/09 07:19:05;;;;;;;4.22;2.08;;;;;;;;;;4879578;29;20668;-89
2021/05/09 07:22:13;;;;;;;3.28;1.90;;;;;;;;;;4878781;29;20345;-90
2021/05/09 07:25:17;;;;;;;8.20;1.95;;;;;;;;;;4878729;29;20281;-91
2021/05/09 07:28:22;;;;;;;3.38;1.92;;;;;;;;;;4879481;29;20189;-93
2021/05/09 07:31:27;;;;;;;5.45;1.90;;;;;;;;;;4878961;29;20571;-92
2021/05/09 07:34:33;;;;;;;2.83;1.60;;;;;;;;;;4876926;29;20550;-91
2021/05/09 07:37:37;;;;;;;4.60;1.65;;;;;;;;;;4876714;29;20217;-92
2021/05/09 07:40:42;;;;;;;2.90;1.60;;;;;;;;;;4877199;29;20213;-92
2021/05/09 07:43:49;;;;;;;5.38;1.90;;;;;;;;;;4877857;29;20217;-92
2021/05/09 07:46:56;;;;;;;2.83;1.50;;;;;;;;;;4878430;29;20206;-93
2021/05/09 07:50:08;;;;;;;2.22;1.42;;;;;;;;;;4859954;29;20198;-93
2021/05/09 07:53:15;;;;;;;3.38;1.35;;;;;;;;;;4877252;29;20270;-92
2021/05/09 07:56:20;;;;;;;2.95;1.40;;;;;;;;;;4892364;29;20204;-92
2021/05/09 07:59:24;;;;;;;5.97;1.40;;;;;;;;;;4892315;29;20676;-92
2021/05/09 08:06:45;;;;;;;3.00;1.40;;;;;;;;;;4838227;29;20229;-91
2021/05/09 08:09:50;;;;;;;4.20;1.30;;;;;;;;;;4861468;29;20247;-93
2021/05/09 08:12:55;;;;;;;2.30;1.20;;;;;;;;;;4862545;29;20672;-92
2021/05/09 08:15:59;;;;;;;3.72;1.52;;;;;;;;;;4861862;29;20251;-92
2021/05/09 08:19:05;;;;;;;5.35;1.30;;;;;;;;;;4872938;29;20201;-92
2021/05/09 08:22:11;;;;;;;3.90;1.45;;;;;;;;;;4873644;29;20685;-92
2021/05/09 08:25:17;;;;;;;2.88;1.35;;;;;;;;;;4873906;29;20313;-90
2021/05/09 08:28:21;;;;;;;3.70;1.20;;;;;;;;;;4863109;29;20201;-92
2021/05/09 08:31:26;;;;;;;3.65;1.60;;;;;;;;;;4865279;29;20201;-92
2021/05/09 08:34:31;;;;;;;2.00;1.23;;;;;;;;;;4865576;29;20184;-92
2021/05/09 08:37:38;;;;;;;2.17;1.52;;;;;;;;;;4864576;29;20607;-92
2021/05/09 08:40:43;;;;;;;3.00;1.15;;;;;;;;;;4862827;29;20197;-92
2021/05/09 08:43:50;;;;;;;3.60;1.60;;;;;;;;;;4866735;29;20224;-92
2021/05/09 08:46:55;;;;;;;4.68;1.48;;;;;;;;;;4863525;29;20189;-92
2021/05/09 08:50:00;;;;;;;2.97;1.30;;;;;;;;;;4861938;29;20250;-93
2021/05/09 08:53:07;;;;;;;4.32;1.40;;;;;;;;;;4877148;29;20200;-92
2021/05/09 08:56:12;;;;;;;4.47;1.23;;;;;;;;;;4883152;29;20193;-93
2021/05/09 08:59:17;;;;;;;2.90;1.10;;;;;;;;;;4884135;29;20193;-92
2021/05/09 09:02:22;;;;;;;2.88;1.20;;;;;;;;;;4881730;29;20201;-94
2021/05/09 09:05:35;;;;;;;2.20;1.20;;;;;;;;;;4882043;29;20229;-93
2021/05/09 09:08:50;;;;;;;5.18;1.13;;;;;;;;;;4882099;29;20212;-93
2021/05/09 09:11:56;;;;;;;3.55;1.20;;;;;;;;;;4883831;29;20172;-94
2021/05/09 09:15:01;;;;;;;1.98;1.00;;;;;;;;;;4881822;29;20249;-94
2021/05/09 09:18:21;;;;;;;2.25;1.27;;;;;;;;;;4882797;29;20213;-93
2021/05/09 09:21:27;;;;;;;3.30;1.20;;;;;;;;;;4881289;29;20261;-92
2021/05/09 09:24:33;;;;;;;2.50;1.17;;;;;;;;;;4880092;29;20221;-93
2021/05/09 09:27:42;;;;;;;4.07;1.40;;;;;;;;;;4891908;29;20203;-92
2021/05/09 09:30:53;;;;;;;1.83;1.10;;;;;;;;;;4882174;29;20269;-93
2021/05/09 09:33:58;;;;;;;2.40;1.20;;;;;;;;;;4881001;29;20250;-93
2021/05/09 09:37:02;;;;;;;2.75;1.08;;;;;;;;;;4884093;29;20200;-91
2021/05/09 09:40:15;;;;;;;2.15;1.23;;;;;;;;;;4893546;29;20277;-91
2021/05/09 09:43:20;;;;;;;2.38;1.20;;;;;;;;;;4892876;29;20272;-92
2021/05/09 09:46:26;;;;;;;1.33;1.00;;;;;;;;;;4891609;29;20260;-90
2021/05/09 09:49:32;;;;;;;2.47;1.40;;;;;;;;;;4895698;29;20246;-92
2021/05/09 09:52:36;;;;;;;6.13;1.38;;;;;;;;;;4891504;29;20317;-93
2021/05/09 09:55:42;;;;;;;3.80;1.55;;;;;;;;;;4891460;29;20253;-93
2021/05/09 09:58:49;;;;;;;3.90;1.23;;;;;;;;;;4892100;29;20196;-93
2021/05/09 10:01:54;;;;;;;3.08;1.20;;;;;;;;;;4891788;29;20242;-91
2021/05/09 10:04:59;;;;;;;7.10;2.15;;;;;;;;;;4893035;29;20256;-91
2021/05/09 10:08:03;;;;;;;5.10;2.40;;;;;;;;;;4886040;29;20580;-91
2021/05/09 10:11:10;;;;;;;3.35;2.20;;;;;;;;;;4881136;29;20193;-93
2021/05/09 10:14:14;;;;;;;5.07;2.80;;;;;;;;;;4892825;29;20213;-92
2021/05/09 10:17:23;;;;;;;10.13;5.13;;;;;;;;;;4882054;29;20210;-92
2021/05/09 10:20:28;;;;;;;11.13;5.03;;;;;;;;;;4863161;29;20198;-91
2021/05/09 10:23:32;;;;;;;8.13;5.00;;;;;;;;;;4860819;29;20286;-91
2021/05/09 10:26:59;;;;;;;3.08;1.92;;;;;;;;;;4861530;29;20198;-92
2021/05/09 10:30:06;;;;;;;4.28;1.98;;;;;;;;;;4863448;29;20262;-92
2021/05/09 10:33:10;;;;;;;3.60;1.98;;;;;;;;;;4861892;29;20235;-92
2021/05/09 10:36:34;;;;;;;3.92;1.17;;;;;;;;;;4861043;29;20210;-92
2021/05/09 10:39:41;;;;;;;2.75;1.30;;;;;;;;;;4863251;29;20205;-92
2021/05/09 10:42:46;;;;;;;2.78;0.85;;;;;;;;;;4862572;29;20348;-91
2021/05/09 10:45:54;;;;;;;4.22;2.35;;;;;;;;;;4866859;29;20245;-93
2021/05/09 10:49:09;;;;;;;1.83;1.25;;;;;;;;;;4891320;29;20199;-91
2021/05/09 10:52:29;;;;;;;3.92;1.48;;;;;;;;;;4892655;29;20236;-90
2021/05/09 10:55:47;;;;;;;3.15;1.00;;;;;;;;;;4891666;29;20263;-92
2021/05/09 10:58:54;;;;;;;1.30;1.00;;;;;;;;;;4881158;29;20204;-92
2021/05/09 11:02:07;;;;;;;1.77;0.90;;;;;;;;;;4891027;29;20268;-96
2021/05/09 11:05:12;;;;;;;1.13;0.70;;;;;;;;;;4891094;29;20223;-93
2021/05/09 11:08:20;;;;;;;3.92;0.93;;;;;;;;;;4862118;29;20196;-90
2021/05/09 11:11:40;;;;;;;1.40;0.98;;;;;;;;;;4873319;29;20672;-92
2021/05/09 11:14:45;;;;;;;2.70;1.00;;;;;;;;;;4872425;29;20212;-91
2021/05/09 11:17:52;;;;;;;1.17;0.93;;;;;;;;;;4862877;29;20226;-93
2021/05/09 11:20:57;;;;;;;2.63;0.90;;;;;;;;;;4861405;29;20246;-91
2021/05/09 11:24:02;;;;;;;2.05;1.17;;;;;;;;;;4862337;29;20244;-91
2021/05/09 11:27:09;;;;;;;4.28;2.55;;;;;;;;;;4863958;29;20196;-91
2021/05/09 11:30:14;;;;;;;1.80;1.15;;;;;;;;;;4867177;29;20196;-91
2021/05/09 11:33:19;;;;;;;4.30;0.80;;;;;;;;;;4891045;29;20192;-91
2021/05/09 11:36:27;;;;;;;3.63;1.05;;;;;;;;;;4881224;29;20236;-92
2021/05/09 11:39:40;;;;;;;1.30;0.70;;;;;;;;;;4881554;29;20204;-90
2021/05/09 11:42:46;;;;;;;2.05;0.70;;;;;;;;;;4892924;29;20231;-92
2021/05/09 11:45:51;;;;;;;1.00;0.70;;;;;;;;;;4879257;29;20196;-91
2021/05/09 11:49:13;;;;;;;1.83;0.75;;;;;;;;;;4890897;29;20188;-91
2021/05/09 11:52:20;;;;;;;1.27;0.82;;;;;;;;;;4881269;29;20201;-94
2021/05/09 11:55:25;;;;;;;2.33;1.00;;;;;;;;;;4880763;29;20210;-90
2021/05/09 11:58:30;;;;;;;2.28;0.77;;;;;;;;;;4892241;29;20201;-93
2021/05/09 12:01:35;;;;;;;2.53;1.00;;;;;;;;;;4897764;29;20201;-92
2021/05/09 12:04:41;;;;;;;3.17;1.00;;;;;;;;;;4896651;29;20220;-92
2021/05/09 12:07:46;;;;;;;6.05;1.05;;;;;;;;;;4886844;29;20208;-92
2021/05/09 12:10:51;;;;;;;2.55;0.70;;;;;;;;;;4897884;29;20192;-92
2021/05/09 12:13:56;;;;;;;0.88;0.63;;;;;;;;;;4894858;29;20192;-92
2021/05/09 12:17:02;;;;;;;1.65;0.60;;;;;;;;;;4883695;29;20192;-91
2021/05/09 12:20:08;;;;;;;2.17;0.85;;;;;;;;;;4892644;29;20576;-94
2021/05/09 12:23:27;;;;;;;1.13;0.82;;;;;;;;;;4882977;29;20909;-93
2021/05/09 12:26:33;;;;;;;3.85;0.90;;;;;;;;;;4883832;29;20208;-93
2021/05/09 12:29:42;;;;;;;1.40;0.90;;;;;;;;;;4893301;29;20196;-89
2021/05/09 12:32:46;;;;;;;2.63;0.82;;;;;;;;;;4883443;29;20264;-90
2021/05/09 12:35:54;;;;;;;6.90;0.90;;;;;;;;;;4894951;29;20755;-92
2021/05/09 12:39:02;;;;;;;1.65;0.80;;;;;;;;;;4882807;29;20311;-92
2021/05/09 12:42:08;;;;;;;3.10;0.60;;;;;;;;;;4883164;29;20230;-92
2021/05/09 12:45:13;;;;;;;2.53;0.70;;;;;;;;;;4873952;29;20229;-90
2021/05/09 12:48:20;;;;;;;0.50;0.50;;;;;;;;;;4863867;29;20317;-92
2021/05/09 12:51:26;;;;;;;0.55;0.50;;;;;;;;;;4868217;29;20200;-91
2021/05/09 12:54:32;;;;;;;2.35;0.95;;;;;;;;;;4894823;29;20301;-94
2021/05/09 12:57:37;;;;;;;0.80;0.50;;;;;;;;;;4892011;29;20225;-92
2021/05/09 13:00:43;;;;;;;0.75;0.70;;;;;;;;;;4886762;29;20221;-91
2021/05/09 13:03:51;;;;;;;5.20;0.80;;;;;;;;;;4885475;29;20278;-93
2021/05/09 13:06:57;;;;;;;1.38;0.85;;;;;;;;;;4895482;29;20241;-92
2021/05/09 13:10:02;;;;;;;3.15;0.70;;;;;;;;;;4884387;29;20196;-92
2021/05/09 13:13:08;;;;;;;0.82;0.70;;;;;;;;;;4885875;29;20213;-92
2021/05/09 13:16:13;;;;;;;1.10;0.60;;;;;;;;;;4885489;29;20270;-91
2021/05/09 13:19:19;;;;;;;1.45;0.50;;;;;;;;;;4897243;29;20253;-94
2021/05/09 13:22:48;;;;;;;1.25;0.70;;;;;;;;;;4889415;29;20296;-92
2021/05/09 13:25:55;;;;;;;3.30;0.60;;;;;;;;;;4898012;29;20203;-92
2021/05/09 13:29:00;;;;;;;0.60;0.50;;;;;;;;;;4886205;29;20579;-92
2021/05/09 13:32:06;;;;;;;2.88;0.80;;;;;;;;;;4895229;29;20200;-91
2021/05/09 13:35:11;;;;;;;2.80;0.50;;;;;;;;;;4883310;29;20201;-92
2021/05/09 13:38:16;;;;;;;1.00;0.55;;;;;;;;;;4893758;29;20562;-91
2021/05/09 13:41:22;;;;;;;0.90;0.60;;;;;;;;;;4883096;29;20207;-91
2021/05/09 13:44:30;;;;;;;1.08;0.52;;;;;;;;;;4882752;29;20236;-92
2021/05/09 13:47:35;;;;;;;2.88;1.00;;;;;;;;;;4892862;29;20250;-93
2021/05/09 13:50:40;;;;;;;0.88;0.68;;;;;;;;;;4882373;29;20204;-92
2021/05/09 13:53:45;;;;;;;1.73;0.73;;;;;;;;;;4881346;29;20196;-95
2021/05/09 13:56:53;;;;;;;0.80;0.60;;;;;;;;;;4881097;29;20544;-92
2021/05/09 13:59:57;;;;;;;3.15;0.50;;;;;;;;;;4880760;29;20208;-91
2021/05/09 14:03:03;;;;;;;0.80;0.50;;;;;;;;;;4881955;29;20205;-93
2021/05/09 14:06:08;;;;;;;1.27;0.50;;;;;;;;;;4881833;29;20218;-92
2021/05/09 14:09:13;;;;;;;0.80;0.60;;;;;;;;;;4890916;29;20212;-91
2021/05/09 14:12:19;;;;;;;0.47;0.45;;;;;;;;;;4881006;29;20221;-91
2021/05/09 14:15:24;;;;;;;0.80;0.60;;;;;;;;;;4885993;29;20214;-90
2021/05/09 14:18:29;;;;;;;0.50;0.50;;;;;;;;;;4894532;29;20224;-90
2021/05/09 14:21:34;;;;;;;1.52;0.52;;;;;;;;;;4887277;29;20253;-90
2021/05/09 14:24:39;;;;;;;1.10;0.50;;;;;;;;;;4880946;29;20281;-91
2021/05/09 14:27:46;;;;;;;0.90;0.60;;;;;;;;;;4879919;29;20281;-90
2021/05/09 14:30:51;;;;;;;1.65;0.50;;;;;;;;;;4879484;29;20208;-90
2021/05/09 14:33:55;;;;;;;0.85;0.75;;;;;;;;;;4868701;29;20206;-91
2021/05/09 14:37:00;;;;;;;4.30;0.82;;;;;;;;;;4887806;29;20208;-92
2021/05/09 14:40:05;;;;;;;1.20;0.70;;;;;;;;;;4863087;29;20250;-92
2021/05/09 14:43:11;;;;;;;3.30;0.70;;;;;;;;;;4867820;29;20227;-90
2021/05/09 14:46:16;;;;;;;3.33;0.65;;;;;;;;;;4881552;29;20199;-91
2021/05/09 14:49:28;;;;;;;1.42;0.70;;;;;;;;;;4879827;29;20253;-91
2021/05/09 14:52:33;;;;;;;0.88;0.60;;;;;;;;;;4889066;29;20207;-90
2021/05/09 14:55:38;;;;;;;3.53;1.25;;;;;;;;;;4885671;29;20236;-92
2021/05/09 14:58:44;;;;;;;0.88;0.70;;;;;;;;;;4870151;29;20196;-92
2021/05/09 15:01:49;;;;;;;2.13;0.52;;;;;;;;;;4894542;29;20288;-91
2021/05/09 15:04:56;;;;;;;2.30;0.70;;;;;;;;;;4894590;29;20240;-92
2021/05/09 15:08:01;;;;;;;1.23;0.63;;;;;;;;;;4893152;29;20188;-93
2021/05/09 15:11:06;;;;;;;2.03;0.80;;;;;;;;;;4870520;29;20242;-92
2021/05/09 15:14:12;;;;;;;0.93;0.50;;;;;;;;;;4894040;29;20192;-91
2021/05/09 15:17:17;;;;;;;2.30;1.00;;;;;;;;;;4894486;29;20212;-90
2021/05/09 15:20:23;;;;;;;0.77;0.55;;;;;;;;;;4887277;29;20232;-90
2021/05/09 15:23:28;;;;;;;2.78;0.70;;;;;;;;;;4872270;29;20221;-92
2021/05/09 15:26:34;;;;;;;2.40;0.82;;;;;;;;;;4881526;29;20193;-93
2021/05/09 15:29:41;;;;;;;2.22;0.70;;;;;;;;;;4882182;29;20234;-93
2021/05/09 15:32:46;;;;;;;1.50;0.77;;;;;;;;;;4880912;29;20173;-91
2021/05/09 15:35:50;;;;;;;4.88;1.70;;;;;;;;;;4883035;29;20196;-91
2021/05/09 15:38:55;;;;;;;5.72;1.70;;;;;;;;;;4881532;29;20233;-93
2021/05/09 15:42:01;;;;;;;7.15;2.38;;;;;;;;;;4879528;29;20313;-91
2021/05/09 15:45:08;;;;;;;1.45;0.80;;;;;;;;;;4878206;29;20261;-91
2021/05/09 15:48:13;;;;;;;2.17;0.88;;;;;;;;;;4878612;29;20209;-89
2021/05/09 15:51:18;;;;;;;5.20;1.25;;;;;;;;;;4861662;29;20208;-90
2021/05/09 15:54:23;;;;;;;1.83;0.70;;;;;;;;;;4861072;29;20244;-91
2021/05/09 15:57:28;;;;;;;3.03;1.30;;;;;;;;;;4872029;29;20250;-92
2021/05/09 16:00:34;;;;;;;2.28;0.90;;;;;;;;;;4860253;29;20219;-90
2021/05/09 16:03:39;;;;;;;1.92;1.08;;;;;;;;;;4870197;29;20207;-92
2021/05/09 16:06:44;;;;;;;2.35;0.98;;;;;;;;;;4879549;29;20247;-92
2021/05/09 16:09:49;;;;;;;3.53;1.10;;;;;;;;;;4879887;29;20200;-93
2021/05/09 16:12:56;;;;;;;5.43;0.73;;;;;;;;;;4889629;29;20607;-92
2021/05/09 16:16:02;;;;;;;1.35;0.90;;;;;;;;;;4891379;29;20209;-93
2021/05/09 16:19:06;;;;;;;4.25;1.38;;;;;;;;;;4892353;29;20254;-91
2021/05/09 16:22:11;;;;;;;1.05;0.80;;;;;;;;;;4891601;29;20216;-92
2021/05/09 16:25:16;;;;;;;1.30;0.90;;;;;;;;;;4879172;29;20256;-92
2021/05/09 16:28:21;;;;;;;0.98;0.70;;;;;;;;;;4880284;29;20182;-90
2021/05/09 16:31:27;;;;;;;1.15;0.80;;;;;;;;;;4880991;29;20205;-91
2021/05/09 16:34:32;;;;;;;1.83;1.00;;;;;;;;;;4891789;29;20197;-92
2021/05/09 16:37:38;;;;;;;3.13;1.00;;;;;;;;;;4885351;29;20290;-92
2021/05/09 16:40:43;;;;;;;2.67;0.98;;;;;;;;;;4895945;29;20201;-91
2021/05/09 16:43:48;;;;;;;1.42;0.80;;;;;;;;;;4882566;29;20814;-92
2021/05/09 16:46:54;;;;;;;3.53;2.20;;;;;;;;;;4878280;29;20198;-91
2021/05/09 16:50:00;;;;;;;1.10;0.90;;;;;;;;;;4875148;29;20813;-91
2021/05/09 16:53:09;;;;;;;1.63;0.80;;;;;;;;;;4879708;29;20205;-92
2021/05/09 16:56:14;;;;;;;2.28;1.00;;;;;;;;;;4893364;29;20189;-91
2021/05/09 16:59:20;;;;;;;6.32;3.80;;;;;;;;;;4893230;29;20212;-91
2021/05/09 17:05:59;;;;;;;13.30;7.22;;;;;;;;;;4868909;29;20209;-90
2021/05/09 17:09:07;;;;;;;11.77;5.50;;;;;;;;;;4871662;29;20684;-92
2021/05/09 17:12:14;;;;;;;6.00;3.25;;;;;;;;;;4866704;29;20225;-90
2021/05/09 17:15:19;;;;;;;3.22;2.00;;;;;;;;;;4886275;29;20205;-91
2021/05/09 17:18:24;;;;;;;4.05;2.63;;;;;;;;;;4895165;29;20274;-92
2021/05/09 17:21:29;;;;;;;3.28;1.20;;;;;;;;;;4888427;29;20197;-91
2021/05/09 17:24:35;;;;;;;4.28;1.38;;;;;;;;;;4894481;29;20253;-90
2021/05/09 17:27:41;;;;;;;2.58;1.60;;;;;;;;;;4894218;29;20251;-92
2021/05/09 17:30:48;;;;;;;2.33;0.90;;;;;;;;;;4894067;29;20181;-90
2021/05/09 17:33:55;;;;;;;2.10;1.08;;;;;;;;;;4892544;29;20250;-91
2021/05/09 17:37:01;;;;;;;6.32;1.80;;;;;;;;;;4889743;29;20209;-91
2021/05/09 17:40:07;;;;;;;2.10;1.48;;;;;;;;;;4892648;29;20572;-91
2021/05/09 17:43:11;;;;;;;3.95;1.27;;;;;;;;;;4891902;29;20241;-90
2021/05/09 17:46:16;;;;;;;3.50;2.08;;;;;;;;;;4881176;29;20201;-90
2021/05/09 17:49:22;;;;;;;5.38;2.47;;;;;;;;;;4892672;29;20277;-91
2021/05/09 17:52:28;;;;;;;6.35;2.75;;;;;;;;;;4881579;29;20210;-89
2021/05/09 17:55:33;;;;;;;7.28;2.10;;;;;;;;;;4893060;29;20176;-91
2021/05/09 17:58:38;;;;;;;2.97;1.63;;;;;;;;;;4884570;29;20209;-92
2021/05/09 18:01:43;;;;;;;3.83;2.00;;;;;;;;;;4893655;29;20261;-92
2021/05/09 18:04:48;;;;;;;5.45;2.58;;;;;;;;;;4893440;29;20255;-92
2021/05/09 18:07:53;;;;;;;5.20;1.95;;;;;;;;;;4894703;29;20217;-91
2021/05/09 18:10:59;;;;;;;3.95;1.88;;;;;;;;;;4895157;29;20202;-90
2021/05/09 18:14:04;;;;;;;4.95;1.60;;;;;;;;;;4894270;29;20265;-91
2021/05/09 18:17:13;;;;;;;4.68;2.13;;;;;;;;;;4892704;29;20202;-88
2021/05/09 18:20:34;;;;;;;5.22;2.30;;;;;;;;;;4863897;29;20229;-92
2021/05/09 18:23:42;;;;;;;4.30;1.80;;;;;;;;;;4888079;29;20220;-90
2021/05/09 18:26:46;;;;;;;4.75;1.92;;;;;;;;;;4894477;29;20246;-92
2021/05/09 18:29:52;;;;;;;4.32;2.10;;;;;;;;;;4893707;29;20207;-91
2021/05/09 18:32:56;;;;;;;9.50;2.40;;;;;;;;;;4895721;29;20242;-93
2021/05/09 18:36:02;;;;;;;6.82;2.50;;;;;;;;;;4894167;29;20557;-93
2021/05/09 18:39:08;;;;;;;7.65;1.80;;;;;;;;;;4894006;29;20254;-92
2021/05/09 18:42:14;;;;;;;7.10;2.08;;;;;;;;;;4865430;29;20585;-89
2021/05/09 18:45:20;;;;;;;5.55;1.70;;;;;;;;;;4868806;29;20228;-91